sensor_id;sensor_type;location;lat;lon;timestamp;pressure;altitude;pressure_sealevel;temperature;humidity
58757;BME280;44527;47.460;19.016;2023-05-23T00:01:24;100017.38;;;15.94;100.00
58757;BME280;44527;47.460;19.016;2023-05-23T00:04:26;100022.56;;;15.85;100.00
58757;BME280;44527;47.460;19.016;2023-05-23T00:07:29;100016.87;;;15.71;100.00
58757;BME280;44527;47.460;19.016;2023-05-23T00:10:33;100021.62;;;15.77;100.00
58757;BME280;44527;47.460;19.016;2023-05-23T00:13:35;100015.59;;;15.84;100.00
58757;BME280;44527;47.460;19.016;2023-05-23T00:16:38;100011.16;;;15.75;100.00
58757;BME280;44527;47.460;19.016;2023-05-23T00:19:42;100006.16;;;15.53;100.00
58757;BME280;44527;47.460;19.016;2023-05-23T00:22:46;100016.31;;;15.67;100.00
58757;BME280;44527;47.460;19.016;2023-05-23T00:25:49;100013.09;;;15.63;100.00
58757;BME280;44527;47.460;19.016;2023-05-23T00:28:54;100003.94;;;15.68;100.00
58757;BME280;44527;47.460;19.016;2023-05-23T00:31:57;100004.31;;;15.63;100.00
58757;BME280;44527;47.460;19.016;2023-05-23T00:34:59;100007.81;;;15.54;100.00
58757;BME280;44527;47.460;19.016;2023-05-23T00:38:01;100008.41;;;15.28;100.00
58757;BME280;44527;47.460;19.016;2023-05-23T00:41:04;100010.19;;;15.18;100.00
58757;BME280;44527;47.460;19.016;2023-05-23T00:44:06;100002.00;;;15.31;100.00
58757;BME280;44527;47.460;19.016;2023-05-23T00:47:11;100012.84;;;15.18;100.00
58757;BME280;44527;47.460;19.016;2023-05-23T00:50:14;100001.16;;;15.11;100.00
58757;BME280;44527;47.460;19.016;2023-05-23T00:53:17;100017.72;;;15.03;100.00
58757;BME280;44527;47.460;19.016;2023-05-23T00:56:19;100002.41;;;14.97;100.00
58757;BME280;44527;47.460;19.016;2023-05-23T00:59:23;100010.47;;;14.96;100.00
58757;BME280;44527;47.460;19.016;2023-05-23T01:02:25;100011.47;;;14.94;100.00
58757;BME280;44527;47.460;19.016;2023-05-23T01:05:29;100001.28;;;14.90;100.00
58757;BME280;44527;47.460;19.016;2023-05-23T01:08:31;100010.19;;;14.79;100.00
58757;BME280;44527;47.460;19.016;2023-05-23T01:11:41;100006.00;;;14.77;100.00
58757;BME280;44527;47.460;19.016;2023-05-23T01:14:49;100002.09;;;14.81;100.00
58757;BME280;44527;47.460;19.016;2023-05-23T01:18:06;100002.53;;;14.86;100.00
58757;BME280;44527;47.460;19.016;2023-05-23T01:30:23;100001.97;;;14.82;100.00
58757;BME280;44527;47.460;19.016;2023-05-23T01:33:26;99991.81;;;14.68;100.00
58757;BME280;44527;47.460;19.016;2023-05-23T01:36:31;99996.62;;;14.53;100.00
58757;BME280;44527;47.460;19.016;2023-05-23T01:39:36;99993.44;;;14.59;100.00
58757;BME280;44527;47.460;19.016;2023-05-23T01:42:39;99990.69;;;14.70;100.00
58757;BME280;44527;47.460;19.016;2023-05-23T01:45:41;99984.88;;;14.77;100.00
58757;BME280;44527;47.460;19.016;2023-05-23T01:48:44;99982.06;;;14.78;100.00
58757;BME280;44527;47.460;19.016;2023-05-23T01:51:47;99988.78;;;14.82;100.00
58757;BME280;44527;47.460;19.016;2023-05-23T01:54:49;99984.03;;;14.96;100.00
58757;BME280;44527;47.460;19.016;2023-05-23T01:57:53;99981.56;;;14.94;100.00
58757;BME280;44527;47.460;19.016;2023-05-23T02:00:56;99984.31;;;14.73;100.00
58757;BME280;44527;47.460;19.016;2023-05-23T02:03:59;99985.03;;;14.85;100.00
58757;BME280;44527;47.460;19.016;2023-05-23T02:07:01;99973.47;;;14.86;100.00
58757;BME280;44527;47.460;19.016;2023-05-23T02:10:03;99982.09;;;14.88;100.00
58757;BME280;44527;47.460;19.016;2023-05-23T02:13:05;99977.38;;;14.82;100.00
58757;BME280;44527;47.460;19.016;2023-05-23T02:16:08;99976.50;;;14.62;100.00
58757;BME280;44527;47.460;19.016;2023-05-23T02:19:10;99980.56;;;14.76;100.00
58757;BME280;44527;47.460;19.016;2023-05-23T02:22:13;99978.47;;;14.79;100.00
58757;BME280;44527;47.460;19.016;2023-05-23T02:25:15;99980.97;;;14.90;100.00
58757;BME280;44527;47.460;19.016;2023-05-23T02:28:18;99976.41;;;14.92;100.00
58757;BME280;44527;47.460;19.016;2023-05-23T02:31:20;99973.19;;;14.89;100.00
58757;BME280;44527;47.460;19.016;2023-05-23T02:34:22;99979.69;;;14.56;100.00
58757;BME280;44527;47.460;19.016;2023-05-23T02:37:24;99975.38;;;14.55;100.00
58757;BME280;44527;47.460;19.016;2023-05-23T02:40:27;99971.50;;;14.68;100.00
58757;BME280;44527;47.460;19.016;2023-05-23T02:43:29;99976.38;;;14.63;100.00
58757;BME280;44527;47.460;19.016;2023-05-23T02:46:32;99976.38;;;14.63;100.00
58757;BME280;44527;47.460;19.016;2023-05-23T02:49:34;99973.53;;;14.45;100.00
58757;BME280;44527;47.460;19.016;2023-05-23T02:52:37;99975.50;;;14.53;100.00
58757;BME280;44527;47.460;19.016;2023-05-23T02:55:39;99973.38;;;14.47;100.00
58757;BME280;44527;47.460;19.016;2023-05-23T02:58:41;99975.44;;;14.43;100.00
58757;BME280;44527;47.460;19.016;2023-05-23T03:01:44;99976.31;;;14.54;100.00
58757;BME280;44527;47.460;19.016;2023-05-23T03:04:46;99971.84;;;14.04;100.00
58757;BME280;44527;47.460;19.016;2023-05-23T03:07:48;99968.09;;;14.07;100.00
58757;BME280;44527;47.460;19.016;2023-05-23T03:10:53;99971.31;;;14.10;100.00
58757;BME280;44527;47.460;19.016;2023-05-23T03:13:54;99964.84;;;14.24;100.00
58757;BME280;44527;47.460;19.016;2023-05-23T03:16:57;99962.87;;;14.26;100.00
58757;BME280;44527;47.460;19.016;2023-05-23T03:19:59;99961.66;;;14.30;100.00
58757;BME280;44527;47.460;19.016;2023-05-23T03:23:01;99973.38;;;14.47;100.00
58757;BME280;44527;47.460;19.016;2023-05-23T03:26:03;99979.94;;;14.53;100.00
58757;BME280;44527;47.460;19.016;2023-05-23T03:29:10;99979.75;;;14.44;100.00
58757;BME280;44527;47.460;19.016;2023-05-23T03:32:12;99974.19;;;14.47;100.00
58757;BME280;44527;47.460;19.016;2023-05-23T03:35:15;99974.91;;;14.49;100.00
58757;BME280;44527;47.460;19.016;2023-05-23T03:38:17;99978.28;;;14.52;100.00
58757;BME280;44527;47.460;19.016;2023-05-23T03:41:19;99969.69;;;14.29;100.00
58757;BME280;44527;47.460;19.016;2023-05-23T03:44:23;99966.75;;;14.12;100.00
58757;BME280;44527;47.460;19.016;2023-05-23T03:47:26;99966.38;;;14.67;100.00
58757;BME280;44527;47.460;19.016;2023-05-23T03:50:29;99965.53;;;14.76;100.00
58757;BME280;44527;47.460;19.016;2023-05-23T03:53:32;99968.72;;;14.60;100.00
58757;BME280;44527;47.460;19.016;2023-05-23T03:56:38;99966.09;;;14.60;100.00
58757;BME280;44527;47.460;19.016;2023-05-23T03:59:40;99973.03;;;14.81;100.00
58757;BME280;44527;47.460;19.016;2023-05-23T04:02:43;99971.37;;;14.89;100.00
58757;BME280;44527;47.460;19.016;2023-05-23T04:05:47;99969.03;;;14.96;100.00
58757;BME280;44527;47.460;19.016;2023-05-23T04:08:49;99977.66;;;14.98;100.00
58757;BME280;44527;47.460;19.016;2023-05-23T04:11:52;99978.34;;;15.10;100.00
58757;BME280;44527;47.460;19.016;2023-05-23T04:14:55;99975.28;;;15.34;100.00
58757;BME280;44527;47.460;19.016;2023-05-23T04:17:57;99976.25;;;15.52;100.00
58757;BME280;44527;47.460;19.016;2023-05-23T04:21:00;99979.41;;;15.75;100.00
58757;BME280;44527;47.460;19.016;2023-05-23T04:24:03;99979.19;;;15.96;100.00
58757;BME280;44527;47.460;19.016;2023-05-23T04:27:05;99979.53;;;16.21;100.00
58757;BME280;44527;47.460;19.016;2023-05-23T04:30:09;99977.34;;;16.44;98.69
58757;BME280;44527;47.460;19.016;2023-05-23T04:33:16;99971.91;;;16.63;98.17
58757;BME280;44527;47.460;19.016;2023-05-23T04:36:19;99977.81;;;17.03;95.77
58757;BME280;44527;47.460;19.016;2023-05-23T04:39:25;99974.50;;;17.71;89.36
58757;BME280;44527;47.460;19.016;2023-05-23T04:42:30;99967.78;;;18.53;86.15
58757;BME280;44527;47.460;19.016;2023-05-23T04:45:35;99978.72;;;19.41;80.75
58757;BME280;44527;47.460;19.016;2023-05-23T04:48:43;99976.84;;;19.91;77.19
58757;BME280;44527;47.460;19.016;2023-05-23T04:51:50;99987.56;;;20.22;75.40
58757;BME280;44527;47.460;19.016;2023-05-23T04:54:52;99985.87;;;21.15;71.27
58757;BME280;44527;47.460;19.016;2023-05-23T04:57:55;99985.91;;;22.05;67.85
58757;BME280;44527;47.460;19.016;2023-05-23T05:01:00;99987.50;;;23.23;62.33
58757;BME280;44527;47.460;19.016;2023-05-23T05:04:02;99993.75;;;24.43;58.04
58757;BME280;44527;47.460;19.016;2023-05-23T05:07:05;99989.81;;;25.27;54.27
58757;BME280;44527;47.460;19.016;2023-05-23T05:10:08;99987.94;;;25.74;52.77
58757;BME280;44527;47.460;19.016;2023-05-23T05:13:18;99983.81;;;26.56;49.56
58757;BME280;44527;47.460;19.016;2023-05-23T05:16:21;99992.38;;;26.85;48.58
58757;BME280;44527;47.460;19.016;2023-05-23T05:19:24;99984.31;;;26.85;49.08
58757;BME280;44527;47.460;19.016;2023-05-23T05:22:27;99987.25;;;27.40;47.47
58757;BME280;44527;47.460;19.016;2023-05-23T05:25:29;99985.94;;;27.49;47.33
58757;BME280;44527;47.460;19.016;2023-05-23T05:28:36;99987.25;;;28.45;45.82
58757;BME280;44527;47.460;19.016;2023-05-23T05:31:39;99975.16;;;28.48;45.57
58757;BME280;44527;47.460;19.016;2023-05-23T05:34:41;99997.91;;;30.13;40.64
58757;BME280;44527;47.460;19.016;2023-05-23T05:37:48;99996.53;;;29.63;40.86
58757;BME280;44527;47.460;19.016;2023-05-23T05:40:50;99989.09;;;30.58;37.88
58757;BME280;44527;47.460;19.016;2023-05-23T05:43:53;99990.50;;;30.60;38.24
58757;BME280;44527;47.460;19.016;2023-05-23T05:46:55;99988.88;;;30.76;37.87
58757;BME280;44527;47.460;19.016;2023-05-23T05:49:57;99989.62;;;31.85;36.78
58757;BME280;44527;47.460;19.016;2023-05-23T05:52:59;99996.38;;;31.14;37.29
58757;BME280;44527;47.460;19.016;2023-05-23T05:56:02;99983.69;;;31.49;37.13
58757;BME280;44527;47.460;19.016;2023-05-23T05:59:05;99983.06;;;31.80;35.99
58757;BME280;44527;47.460;19.016;2023-05-23T06:02:08;99994.37;;;32.11;34.76
58757;BME280;44527;47.460;19.016;2023-05-23T06:05:10;99984.22;;;32.45;33.98
58757;BME280;44527;47.460;19.016;2023-05-23T06:08:17;99985.53;;;33.24;31.64
58757;BME280;44527;47.460;19.016;2023-05-23T06:11:20;99993.47;;;34.05;30.61
58757;BME280;44527;47.460;19.016;2023-05-23T06:14:22;99988.66;;;32.79;32.36
58757;BME280;44527;47.460;19.016;2023-05-23T06:17:25;99981.88;;;33.46;31.05
58757;BME280;44527;47.460;19.016;2023-05-23T06:20:27;99988.84;;;32.99;31.45
58757;BME280;44527;47.460;19.016;2023-05-23T06:23:31;99988.06;;;33.68;30.76
58757;BME280;44527;47.460;19.016;2023-05-23T06:26:33;99995.47;;;34.20;29.41
58757;BME280;44527;47.460;19.016;2023-05-23T06:29:35;99989.03;;;32.92;31.74
58757;BME280;44527;47.460;19.016;2023-05-23T06:32:38;99981.91;;;32.59;32.29
58757;BME280;44527;47.460;19.016;2023-05-23T06:35:41;99989.41;;;33.33;30.84
58757;BME280;44527;47.460;19.016;2023-05-23T06:38:43;99992.03;;;33.50;31.79
58757;BME280;44527;47.460;19.016;2023-05-23T06:41:46;99998.09;;;34.05;30.41
58757;BME280;44527;47.460;19.016;2023-05-23T06:44:48;99994.84;;;34.81;28.92
58757;BME280;44527;47.460;19.016;2023-05-23T06:47:52;99991.50;;;34.53;29.53
58757;BME280;44527;47.460;19.016;2023-05-23T06:50:54;99986.16;;;35.10;28.21
58757;BME280;44527;47.460;19.016;2023-05-23T06:53:57;99993.19;;;34.70;29.58
58757;BME280;44527;47.460;19.016;2023-05-23T06:57:00;99984.22;;;34.74;30.39
58757;BME280;44527;47.460;19.016;2023-05-23T07:00:03;99985.22;;;36.11;27.29
58757;BME280;44527;47.460;19.016;2023-05-23T07:03:08;99975.78;;;35.53;28.14
58757;BME280;44527;47.460;19.016;2023-05-23T07:06:12;99985.03;;;34.95;28.06
58757;BME280;44527;47.460;19.016;2023-05-23T07:09:15;99974.41;;;34.89;29.51
58757;BME280;44527;47.460;19.016;2023-05-23T07:12:18;99968.94;;;35.71;28.84
58757;BME280;44527;47.460;19.016;2023-05-23T07:15:20;99972.22;;;35.73;28.66
58757;BME280;44527;47.460;19.016;2023-05-23T07:18:23;99967.22;;;35.95;26.98
58757;BME280;44527;47.460;19.016;2023-05-23T07:21:26;99967.88;;;35.10;29.24
58757;BME280;44527;47.460;19.016;2023-05-23T07:24:33;99967.06;;;35.10;29.40
58757;BME280;44527;47.460;19.016;2023-05-23T07:27:41;99965.03;;;36.07;27.72
58757;BME280;44527;47.460;19.016;2023-05-23T07:30:43;99968.31;;;33.83;29.89
58757;BME280;44527;47.460;19.016;2023-05-23T07:33:45;99962.50;;;34.22;30.10
58757;BME280;44527;47.460;19.016;2023-05-23T07:36:49;99961.84;;;34.88;29.51
58757;BME280;44527;47.460;19.016;2023-05-23T07:39:52;99969.38;;;34.35;29.70
58757;BME280;44527;47.460;19.016;2023-05-23T07:42:54;99969.66;;;34.38;30.51
58757;BME280;44527;47.460;19.016;2023-05-23T07:46:06;99961.81;;;33.94;30.50
58757;BME280;44527;47.460;19.016;2023-05-23T07:49:10;99960.59;;;34.27;30.07
58757;BME280;44527;47.460;19.016;2023-05-23T07:52:13;99962.50;;;34.22;30.84
58757;BME280;44527;47.460;19.016;2023-05-23T07:55:16;99953.06;;;33.87;30.85
58757;BME280;44527;47.460;19.016;2023-05-23T07:58:19;99948.72;;;33.11;32.87
58757;BME280;44527;47.460;19.016;2023-05-23T08:01:21;99945.06;;;32.68;34.33
58757;BME280;44527;47.460;19.016;2023-05-23T08:04:26;99947.69;;;32.58;33.08
58757;BME280;44527;47.460;19.016;2023-05-23T08:07:29;99947.81;;;31.64;35.73
58757;BME280;44527;47.460;19.016;2023-05-23T08:10:32;99943.38;;;31.07;36.26
58757;BME280;44527;47.460;19.016;2023-05-23T08:13:37;99942.59;;;31.23;36.42
58757;BME280;44527;47.460;19.016;2023-05-23T08:16:43;99934.03;;;30.81;36.79
58757;BME280;44527;47.460;19.016;2023-05-23T08:19:47;99931.03;;;30.37;38.36
58757;BME280;44527;47.460;19.016;2023-05-23T08:22:50;99939.78;;;30.15;38.63
58757;BME280;44527;47.460;19.016;2023-05-23T08:25:53;99935.38;;;29.86;39.87
58757;BME280;44527;47.460;19.016;2023-05-23T08:28:57;99944.44;;;29.80;39.19
58757;BME280;44527;47.460;19.016;2023-05-23T08:31:59;99950.78;;;29.26;40.07
58757;BME280;44527;47.460;19.016;2023-05-23T08:35:02;99937.28;;;28.96;40.77
58757;BME280;44527;47.460;19.016;2023-05-23T08:38:06;99939.63;;;28.51;42.10
58757;BME280;44527;47.460;19.016;2023-05-23T08:41:15;99936.62;;;28.22;43.24
58757;BME280;44527;47.460;19.016;2023-05-23T08:44:20;99936.44;;;27.87;44.58
58757;BME280;44527;47.460;19.016;2023-05-23T08:47:23;99934.38;;;28.01;43.77
58757;BME280;44527;47.460;19.016;2023-05-23T08:50:27;99930.78;;;27.88;46.48
58757;BME280;44527;47.460;19.016;2023-05-23T08:53:30;99943.34;;;27.76;45.12
58757;BME280;44527;47.460;19.016;2023-05-23T08:56:35;99932.25;;;27.66;46.00
58757;BME280;44527;47.460;19.016;2023-05-23T08:59:38;99933.06;;;27.66;44.07
58757;BME280;44527;47.460;19.016;2023-05-23T09:02:43;99930.25;;;27.61;46.70
58757;BME280;44527;47.460;19.016;2023-05-23T09:05:49;99933.37;;;27.83;47.63
58757;BME280;44527;47.460;19.016;2023-05-23T09:08:52;99931.13;;;27.55;44.97
58757;BME280;44527;47.460;19.016;2023-05-23T09:11:54;99932.53;;;27.58;46.59
58757;BME280;44527;47.460;19.016;2023-05-23T09:14:57;99942.72;;;27.81;47.29
58757;BME280;44527;47.460;19.016;2023-05-23T09:18:00;99934.56;;;27.87;45.22
58757;BME280;44527;47.460;19.016;2023-05-23T09:21:06;99926.59;;;28.11;48.16
58757;BME280;44527;47.460;19.016;2023-05-23T09:24:10;99934.53;;;28.24;43.53
58757;BME280;44527;47.460;19.016;2023-05-23T09:27:13;99939.13;;;28.05;46.17
58757;BME280;44527;47.460;19.016;2023-05-23T09:30:16;99929.75;;;28.08;45.02
58757;BME280;44527;47.460;19.016;2023-05-23T09:33:19;99930.50;;;27.97;44.56
58757;BME280;44527;47.460;19.016;2023-05-23T09:36:22;99926.75;;;27.79;44.62
58757;BME280;44527;47.460;19.016;2023-05-23T09:39:24;99926.00;;;28.09;44.00
58757;BME280;44527;47.460;19.016;2023-05-23T09:42:30;99920.91;;;28.01;46.46
58757;BME280;44527;47.460;19.016;2023-05-23T09:45:33;99930.59;;;27.90;44.98
58757;BME280;44527;47.460;19.016;2023-05-23T09:48:36;99920.22;;;28.42;43.53
58757;BME280;44527;47.460;19.016;2023-05-23T09:51:39;99924.00;;;28.53;42.94
58757;BME280;44527;47.460;19.016;2023-05-23T09:54:42;99921.03;;;28.73;43.44
58757;BME280;44527;47.460;19.016;2023-05-23T09:57:45;99919.97;;;28.74;43.77
58757;BME280;44527;47.460;19.016;2023-05-23T10:00:50;99917.56;;;28.54;43.42
58757;BME280;44527;47.460;19.016;2023-05-23T10:03:54;99922.66;;;28.44;44.29
58757;BME280;44527;47.460;19.016;2023-05-23T10:07:03;99918.25;;;28.31;44.71
58757;BME280;44527;47.460;19.016;2023-05-23T10:10:08;99914.38;;;28.27;44.42
58757;BME280;44527;47.460;19.016;2023-05-23T10:13:11;99909.66;;;28.04;43.12
58757;BME280;44527;47.460;19.016;2023-05-23T10:16:17;99909.97;;;27.77;43.94
58757;BME280;44527;47.460;19.016;2023-05-23T10:19:31;99905.16;;;27.98;45.16
58757;BME280;44527;47.460;19.016;2023-05-23T10:22:37;99896.06;;;28.59;43.78
58757;BME280;44527;47.460;19.016;2023-05-23T10:25:39;99899.50;;;29.31;42.94
58757;BME280;44527;47.460;19.016;2023-05-23T10:28:43;99898.59;;;29.73;40.17
58757;BME280;44527;47.460;19.016;2023-05-23T10:31:46;99899.75;;;29.77;38.50
58757;BME280;44527;47.460;19.016;2023-05-23T10:34:53;99897.94;;;29.94;40.14
58757;BME280;44527;47.460;19.016;2023-05-23T10:41:22;99888.47;;;29.33;41.40
58757;BME280;44527;47.460;19.016;2023-05-23T10:44:28;99878.53;;;28.92;42.99
58757;BME280;44527;47.460;19.016;2023-05-23T10:47:34;99883.00;;;28.98;43.90
58757;BME280;44527;47.460;19.016;2023-05-23T10:50:37;99888.63;;;28.73;43.98
58757;BME280;44527;47.460;19.016;2023-05-23T10:53:45;99888.41;;;28.98;43.23
58757;BME280;44527;47.460;19.016;2023-05-23T10:57:01;99883.41;;;29.13;41.37
58757;BME280;44527;47.460;19.016;2023-05-23T11:00:04;99875.91;;;29.03;42.29
58757;BME280;44527;47.460;19.016;2023-05-23T11:03:06;99876.12;;;29.25;41.75
58757;BME280;44527;47.460;19.016;2023-05-23T11:06:27;99868.72;;;29.44;39.37
58757;BME280;44527;47.460;19.016;2023-05-23T11:09:29;99870.38;;;29.45;40.51
58757;BME280;44527;47.460;19.016;2023-05-23T11:12:35;99861.31;;;29.40;38.41
58757;BME280;44527;47.460;19.016;2023-05-23T11:15:41;99863.91;;;29.70;39.18
58757;BME280;44527;47.460;19.016;2023-05-23T11:18:43;99859.91;;;29.25;37.96
58757;BME280;44527;47.460;19.016;2023-05-23T11:24:49;99847.41;;;28.77;42.36
58757;BME280;44527;47.460;19.016;2023-05-23T11:27:52;99847.47;;;29.24;40.92
58757;BME280;44527;47.460;19.016;2023-05-23T11:30:55;99843.00;;;29.30;41.11
58757;BME280;44527;47.460;19.016;2023-05-23T11:34:00;99844.62;;;29.31;40.68
58757;BME280;44527;47.460;19.016;2023-05-23T11:37:03;99843.91;;;28.89;40.42
58757;BME280;44527;47.460;19.016;2023-05-23T11:43:29;99837.22;;;28.07;44.57
58757;BME280;44527;47.460;19.016;2023-05-23T11:46:31;99829.09;;;27.59;46.98
58757;BME280;44527;47.460;19.016;2023-05-23T11:49:37;99828.75;;;27.30;46.41
58757;BME280;44527;47.460;19.016;2023-05-23T11:52:39;99824.31;;;26.92;46.67
58757;BME280;44527;47.460;19.016;2023-05-23T11:55:47;99813.44;;;27.49;47.12
58757;BME280;44527;47.460;19.016;2023-05-23T11:58:49;99800.69;;;27.93;45.52
58757;BME280;44527;47.460;19.016;2023-05-23T12:01:52;99811.94;;;28.50;46.18
58757;BME280;44527;47.460;19.016;2023-05-23T12:04:55;99803.03;;;28.31;44.32
58757;BME280;44527;47.460;19.016;2023-05-23T12:07:58;99785.63;;;28.46;43.20
58757;BME280;44527;47.460;19.016;2023-05-23T12:11:01;99787.53;;;28.27;44.06
58757;BME280;44527;47.460;19.016;2023-05-23T12:14:03;99785.69;;;28.39;43.02
58757;BME280;44527;47.460;19.016;2023-05-23T12:17:07;99779.03;;;28.42;43.73
58757;BME280;44527;47.460;19.016;2023-05-23T12:20:09;99774.00;;;28.45;43.00
58757;BME280;44527;47.460;19.016;2023-05-23T12:23:22;99768.03;;;28.55;40.88
58757;BME280;44527;47.460;19.016;2023-05-23T12:26:24;99770.97;;;28.53;42.13
58757;BME280;44527;47.460;19.016;2023-05-23T12:29:30;99761.09;;;28.47;41.30
58757;BME280;44527;47.460;19.016;2023-05-23T12:32:39;99761.41;;;28.39;39.56
58757;BME280;44527;47.460;19.016;2023-05-23T12:35:43;99752.62;;;28.02;41.43
58757;BME280;44527;47.460;19.016;2023-05-23T12:38:45;99740.09;;;28.19;41.62
58757;BME280;44527;47.460;19.016;2023-05-23T12:41:48;99743.03;;;28.48;40.36
58757;BME280;44527;47.460;19.016;2023-05-23T12:44:50;99747.09;;;28.38;39.79
58757;BME280;44527;47.460;19.016;2023-05-23T12:47:53;99736.97;;;28.34;40.49
58757;BME280;44527;47.460;19.016;2023-05-23T12:50:55;99729.69;;;28.23;41.53
58757;BME280;44527;47.460;19.016;2023-05-23T12:53:58;99738.34;;;28.01;43.67
58757;BME280;44527;47.460;19.016;2023-05-23T12:57:01;99739.44;;;28.24;42.49
58757;BME280;44527;47.460;19.016;2023-05-23T13:00:03;99736.91;;;28.52;41.65
58757;BME280;44527;47.460;19.016;2023-05-23T13:03:06;99735.09;;;28.34;39.63
58757;BME280;44527;47.460;19.016;2023-05-23T13:06:10;99730.72;;;28.22;42.23
58757;BME280;44527;47.460;19.016;2023-05-23T13:09:12;99715.38;;;28.10;40.20
58757;BME280;44527;47.460;19.016;2023-05-23T13:12:14;99717.28;;;27.80;41.80
58757;BME280;44527;47.460;19.016;2023-05-23T13:15:16;99700.09;;;27.44;43.65
58757;BME280;44527;47.460;19.016;2023-05-23T13:18:19;99706.16;;;27.69;44.13
58757;BME280;44527;47.460;19.016;2023-05-23T13:21:21;99703.22;;;27.59;43.61
58757;BME280;44527;47.460;19.016;2023-05-23T13:24:24;99701.22;;;27.18;44.99
58757;BME280;44527;47.460;19.016;2023-05-23T13:27:26;99701.59;;;27.40;42.57
58757;BME280;44527;47.460;19.016;2023-05-23T13:30:28;99700.16;;;27.56;42.73
58757;BME280;44527;47.460;19.016;2023-05-23T13:33:30;99705.72;;;27.72;40.73
58757;BME280;44527;47.460;19.016;2023-05-23T13:36:33;99696.50;;;27.50;43.16
58757;BME280;44527;47.460;19.016;2023-05-23T13:39:36;99701.59;;;27.70;42.38
58757;BME280;44527;47.460;19.016;2023-05-23T13:42:38;99699.72;;;27.89;41.32
58757;BME280;44527;47.460;19.016;2023-05-23T13:45:41;99703.34;;;27.64;41.23
58757;BME280;44527;47.460;19.016;2023-05-23T13:48:43;99704.81;;;27.79;41.05
58757;BME280;44527;47.460;19.016;2023-05-23T13:51:46;99709.63;;;27.77;41.72
58757;BME280;44527;47.460;19.016;2023-05-23T13:54:48;99701.66;;;27.82;41.98
58757;BME280;44527;47.460;19.016;2023-05-23T13:57:50;99709.09;;;27.86;41.35
58757;BME280;44527;47.460;19.016;2023-05-23T14:00:52;99698.94;;;27.52;41.00
58757;BME280;44527;47.460;19.016;2023-05-23T14:03:55;99688.97;;;27.22;41.90
58757;BME280;44527;47.460;19.016;2023-05-23T14:06:57;99688.00;;;27.16;42.47
58757;BME280;44527;47.460;19.016;2023-05-23T14:10:00;99692.19;;;27.12;44.40
58757;BME280;44527;47.460;19.016;2023-05-23T14:13:02;99685.12;;;27.11;41.34
58757;BME280;44527;47.460;19.016;2023-05-23T14:16:04;99680.13;;;27.15;41.05
58757;BME280;44527;47.460;19.016;2023-05-23T14:19:06;99675.31;;;27.35;40.62
58757;BME280;44527;47.460;19.016;2023-05-23T14:22:09;99690.03;;;27.51;41.05
58757;BME280;44527;47.460;19.016;2023-05-23T14:25:12;99670.31;;;27.69;39.35
58757;BME280;44527;47.460;19.016;2023-05-23T14:28:14;99665.97;;;27.68;38.49
58757;BME280;44527;47.460;19.016;2023-05-23T14:31:17;99658.00;;;27.73;37.71
58757;BME280;44527;47.460;19.016;2023-05-23T14:34:19;99662.06;;;27.52;38.53
58757;BME280;44527;47.460;19.016;2023-05-23T14:37:22;99661.97;;;27.59;41.16
58757;BME280;44527;47.460;19.016;2023-05-23T14:40:24;99669.91;;;27.54;41.40
58757;BME280;44527;47.460;19.016;2023-05-23T14:43:27;99668.84;;;27.55;38.00
58757;BME280;44527;47.460;19.016;2023-05-23T14:46:29;99665.84;;;27.63;39.57
58757;BME280;44527;47.460;19.016;2023-05-23T14:49:32;99664.91;;;27.69;40.44
58757;BME280;44527;47.460;19.016;2023-05-23T14:52:34;99674.63;;;27.70;39.91
58757;BME280;44527;47.460;19.016;2023-05-23T14:55:36;99665.50;;;27.71;39.92
58757;BME280;44527;47.460;19.016;2023-05-23T14:58:43;99665.22;;;27.49;40.90
58757;BME280;44527;47.460;19.016;2023-05-23T15:01:46;99665.25;;;27.31;43.54
58757;BME280;44527;47.460;19.016;2023-05-23T15:04:48;99667.63;;;27.20;42.62
58757;BME280;44527;47.460;19.016;2023-05-23T15:07:50;99671.66;;;27.11;43.25
58757;BME280;44527;47.460;19.016;2023-05-23T15:10:58;99671.75;;;27.23;41.99
58757;BME280;44527;47.460;19.016;2023-05-23T15:14:00;99669.66;;;27.25;41.67
58757;BME280;44527;47.460;19.016;2023-05-23T15:17:02;99662.03;;;27.22;42.24
58757;BME280;44527;47.460;19.016;2023-05-23T15:20:09;99668.25;;;27.22;42.05
58757;BME280;44527;47.460;19.016;2023-05-23T15:23:11;99663.97;;;27.15;42.11
58757;BME280;44527;47.460;19.016;2023-05-23T15:26:13;99662.62;;;27.24;42.05
58757;BME280;44527;47.460;19.016;2023-05-23T15:29:15;99660.88;;;27.11;41.52
58757;BME280;44527;47.460;19.016;2023-05-23T15:32:19;99671.75;;;27.23;41.44
58757;BME280;44527;47.460;19.016;2023-05-23T15:35:21;99671.38;;;27.19;42.23
58757;BME280;44527;47.460;19.016;2023-05-23T15:38:24;99674.25;;;27.24;41.63
58757;BME280;44527;47.460;19.016;2023-05-23T15:41:26;99670.63;;;26.94;40.89
58757;BME280;44527;47.460;19.016;2023-05-23T15:44:28;99668.50;;;26.77;41.60
58757;BME280;44527;47.460;19.016;2023-05-23T15:47:31;99674.31;;;26.56;41.01
58757;BME280;44527;47.460;19.016;2023-05-23T15:50:33;99663.03;;;26.66;41.41
58757;BME280;44527;47.460;19.016;2023-05-23T15:53:36;99659.63;;;26.77;41.41
58757;BME280;44527;47.460;19.016;2023-05-23T15:56:58;99656.16;;;26.51;41.69
58757;BME280;44527;47.460;19.016;2023-05-23T16:00:01;99659.09;;;26.43;42.67
58757;BME280;44527;47.460;19.016;2023-05-23T16:03:12;99654.50;;;26.25;43.48
58757;BME280;44527;47.460;19.016;2023-05-23T16:06:15;99652.31;;;26.16;43.71
58757;BME280;44527;47.460;19.016;2023-05-23T16:09:17;99655.28;;;26.07;43.40
58757;BME280;44527;47.460;19.016;2023-05-23T16:12:19;99660.31;;;25.97;44.78